createdAt,value
2023-02-28T00:01:36.776Z,88.50
2023-02-28T00:04:05.271Z,88.40
2023-02-28T00:06:33.628Z,88.40
2023-02-28T00:09:01.934Z,88.60
2023-02-28T00:11:30.686Z,88.60
2023-02-28T00:14:00.580Z,88.60
2023-02-28T00:16:28.933Z,88.60
2023-02-28T00:18:57.376Z,88.60
2023-02-28T00:21:25.914Z,88.60
2023-02-28T00:23:54.242Z,88.60
2023-02-28T00:26:22.653Z,88.70
2023-02-28T00:28:51.057Z,88.70
2023-02-28T00:31:20.808Z,88.80
2023-02-28T00:33:49.166Z,88.70
2023-02-28T00:36:17.471Z,88.60
2023-02-28T00:38:45.848Z,88.70
2023-02-28T00:41:17.351Z,88.70
2023-02-28T00:43:50.864Z,88.70
2023-02-28T00:46:20.616Z,88.90
2023-02-28T00:48:57.908Z,88.70
2023-02-28T00:51:26.330Z,88.80
2023-02-28T00:53:54.983Z,88.70
2023-02-28T00:56:26.139Z,89.70
2023-02-28T00:58:54.571Z,89.20
2023-02-28T01:01:24.336Z,89.10
2023-02-28T01:03:52.672Z,89.20
2023-02-28T01:06:20.976Z,89.40
2023-02-28T01:08:49.272Z,89.40
2023-02-28T01:11:20.932Z,89.50
2023-02-28T01:13:49.291Z,89.30
2023-02-28T01:16:17.717Z,89.40
2023-02-28T01:18:47.474Z,89.50
2023-02-28T01:21:17.626Z,89.50
2023-02-28T01:23:46.132Z,89.60
2023-02-28T01:26:15.879Z,89.60
2023-02-28T01:28:44.479Z,89.60
2023-02-28T01:31:12.981Z,89.50
2023-02-28T01:33:41.600Z,89.60
2023-02-28T01:36:12.189Z,90.00
2023-02-28T01:38:40.550Z,89.80
2023-02-28T01:41:08.983Z,89.50
2023-02-28T01:43:59.243Z,89.70
2023-02-28T01:46:30.393Z,89.80
2023-02-28T01:49:02.503Z,89.70
2023-02-28T01:51:33.834Z,89.60
2023-02-28T01:54:03.600Z,89.70
2023-02-28T01:56:35.160Z,89.70
2023-02-28T01:59:03.565Z,90.00
2023-02-28T02:01:32.168Z,89.90
2023-02-28T02:04:05.085Z,89.80
2023-02-28T02:06:36.948Z,89.60
2023-02-28T02:09:05.508Z,89.70
2023-02-28T02:11:33.990Z,89.70
2023-02-28T02:14:27.539Z,89.70
2023-02-28T02:17:06.835Z,89.70
2023-02-28T02:20:06.571Z,89.70
2023-02-28T02:23:09.898Z,89.60
2023-02-28T02:25:44.357Z,89.80
2023-02-28T02:28:46.853Z,89.80
2023-02-28T02:31:33.470Z,89.80
2023-02-28T02:34:31.152Z,89.80
2023-02-28T02:37:08.664Z,89.80
2023-02-28T02:39:40.392Z,89.90
2023-02-28T02:42:13.956Z,89.80
2023-02-28T02:44:45.491Z,89.90
2023-02-28T02:47:15.317Z,89.90
2023-02-28T02:49:47.201Z,89.90
2023-02-28T02:52:16.511Z,90.00
2023-02-28T02:54:46.238Z,90.00
2023-02-28T02:57:15.916Z,90.00
2023-02-28T02:59:45.510Z,90.00
2023-02-28T03:02:14.648Z,90.20
2023-02-28T03:04:47.420Z,90.10
2023-02-28T03:07:15.894Z,90.00
2023-02-28T03:09:52.795Z,90.00
2023-02-28T03:12:21.146Z,90.10
2023-02-28T03:14:59.152Z,90.00
2023-02-28T03:17:56.331Z,90.10
2023-02-28T03:20:31.601Z,90.10
2023-02-28T03:23:03.848Z,90.10
2023-02-28T03:25:35.299Z,90.20
2023-02-28T03:28:07.285Z,90.30
2023-02-28T03:30:38.972Z,90.30
2023-02-28T03:33:09.978Z,90.30
2023-02-28T03:35:41.157Z,90.50
2023-02-28T03:38:14.899Z,90.30
2023-02-28T03:40:45.357Z,90.40
2023-02-28T03:43:15.828Z,90.30
2023-02-28T03:45:44.170Z,90.20
2023-02-28T03:48:15.244Z,90.30
2023-02-28T03:50:45.998Z,90.40
2023-02-28T03:53:15.681Z,90.30
2023-02-28T03:55:44.933Z,90.30
2023-02-28T03:58:15.148Z,90.40
2023-02-28T04:00:45.967Z,90.40
2023-02-28T04:03:14.264Z,90.40
2023-02-28T04:05:51.122Z,90.40
2023-02-28T04:08:19.436Z,90.40
2023-02-28T04:10:50.191Z,90.60
2023-02-28T04:13:18.613Z,90.70
2023-02-28T04:15:46.942Z,90.60
2023-02-28T04:18:15.291Z,90.50
2023-02-28T04:20:43.605Z,90.60
2023-02-28T04:23:15.968Z,90.60
2023-02-28T04:25:44.574Z,90.80
2023-02-28T04:28:12.954Z,91.20
2023-02-28T04:30:43.281Z,90.80
2023-02-28T04:33:11.637Z,90.70
2023-02-28T04:35:40.135Z,90.70
2023-02-28T04:38:08.559Z,90.80
2023-02-28T04:40:38.280Z,90.70
2023-02-28T04:43:06.640Z,90.70
2023-02-28T04:45:35.088Z,90.80
2023-02-28T04:48:03.483Z,90.70
2023-02-28T04:50:31.871Z,90.70
2023-02-28T04:53:00.290Z,90.70
2023-02-28T04:55:28.605Z,90.70
2023-02-28T04:57:58.817Z,90.70
2023-02-28T05:00:27.112Z,90.70
2023-02-28T05:02:55.532Z,90.80
2023-02-28T05:05:23.927Z,90.70
2023-02-28T05:07:52.312Z,90.80
2023-02-28T05:10:20.697Z,90.80
2023-02-28T05:12:49.772Z,90.90
2023-02-28T05:15:19.433Z,90.80
2023-02-28T05:17:47.721Z,90.90
2023-02-28T05:20:17.438Z,90.80
2023-02-28T05:22:48.245Z,90.80
2023-02-28T05:25:18.507Z,90.80
2023-02-28T05:27:46.946Z,90.80
2023-02-28T05:30:16.303Z,90.90
2023-02-28T05:32:45.976Z,91.00
2023-02-28T05:35:14.265Z,90.90
2023-02-28T05:37:42.556Z,91.00
2023-02-28T05:40:12.253Z,91.00
2023-02-28T05:42:40.668Z,90.90
2023-02-28T05:45:09.711Z,91.00
2023-02-28T05:47:38.026Z,90.80
2023-02-28T05:50:10.458Z,90.80
2023-02-28T05:52:38.923Z,90.70
2023-02-28T05:55:08.217Z,90.80
2023-02-28T05:57:36.555Z,90.70
2023-02-28T06:00:05.887Z,90.80
2023-02-28T06:02:34.360Z,90.80
2023-02-28T06:05:02.734Z,90.80
2023-02-28T06:07:32.453Z,90.70
2023-02-28T06:10:00.782Z,90.70
2023-02-28T06:12:29.128Z,90.60
2023-02-28T06:14:57.541Z,90.70
2023-02-28T06:17:25.845Z,90.60
2023-02-28T06:19:54.147Z,90.60
2023-02-28T06:22:22.477Z,90.60
2023-02-28T06:24:53.673Z,90.60
2023-02-28T06:27:23.035Z,90.50
2023-02-28T06:29:55.608Z,90.70
2023-02-28T06:32:23.978Z,90.70
2023-02-28T06:34:52.426Z,90.70
2023-02-28T06:37:21.095Z,90.70
2023-02-28T06:39:49.456Z,90.60
2023-02-28T06:42:19.165Z,90.50
2023-02-28T06:44:59.691Z,90.60
2023-02-28T06:47:30.726Z,90.70
2023-02-28T06:49:59.052Z,90.80
2023-02-28T06:52:30.585Z,90.90
2023-02-28T06:55:01.988Z,90.90
2023-02-28T06:57:32.816Z,90.90
2023-02-28T07:00:01.466Z,91.10
2023-02-28T07:02:29.848Z,91.10
2023-02-28T07:04:58.335Z,91.20
2023-02-28T07:07:26.803Z,91.10
2023-02-28T07:09:57.882Z,91.00
2023-02-28T07:12:26.265Z,91.00
2023-02-28T07:14:56.935Z,90.90
2023-02-28T07:17:31.144Z,91.00
2023-02-28T07:19:59.431Z,90.80
2023-02-28T07:22:29.476Z,90.70
2023-02-28T07:25:00.202Z,90.70
2023-02-28T07:27:28.597Z,90.60
2023-02-28T07:29:58.455Z,90.80
2023-02-28T07:32:29.697Z,90.70
2023-02-28T07:34:58.043Z,90.70
2023-02-28T07:37:26.421Z,90.70
2023-02-28T07:40:05.119Z,90.80
2023-02-28T07:42:35.883Z,90.70
2023-02-28T07:45:08.742Z,91.00
2023-02-28T07:47:37.198Z,90.80
2023-02-28T07:50:06.313Z,91.00
2023-02-28T07:52:34.690Z,91.00
2023-02-28T07:55:03.134Z,91.40
2023-02-28T07:57:33.537Z,91.50
2023-02-28T08:00:02.418Z,91.70
2023-02-28T08:02:32.285Z,92.00
2023-02-28T08:05:01.686Z,92.50
2023-02-28T08:07:30.112Z,92.80
2023-02-28T08:09:58.416Z,92.90
2023-02-28T08:12:26.851Z,92.80
2023-02-28T08:14:55.172Z,92.80
2023-02-28T08:17:23.487Z,92.90
2023-02-28T08:19:53.221Z,92.70
2023-02-28T08:22:21.567Z,92.70
2023-02-28T08:24:50.169Z,92.70
2023-02-28T08:27:18.560Z,92.70
2023-02-28T08:29:46.904Z,92.60
2023-02-28T08:32:29.006Z,92.70
2023-02-28T08:34:59.730Z,92.50
2023-02-28T08:37:28.031Z,92.50
2023-02-28T08:39:56.688Z,92.40
2023-02-28T08:42:25.118Z,92.30
2023-02-28T08:44:58.859Z,92.40
2023-02-28T08:47:27.538Z,92.50
2023-02-28T08:49:55.961Z,92.30
2023-02-28T08:52:25.718Z,92.40
2023-02-28T08:54:54.087Z,92.40
2023-02-28T08:57:22.375Z,92.30
2023-02-28T08:59:50.710Z,92.40
2023-02-28T09:02:20.946Z,92.30
2023-02-28T09:04:49.311Z,92.20
2023-02-28T09:07:20.413Z,92.10
2023-02-28T09:09:56.203Z,92.20
2023-02-28T09:12:24.643Z,92.20
2023-02-28T09:14:53.299Z,92.10
2023-02-28T09:17:21.873Z,92.20
2023-02-28T09:19:50.424Z,92.00
2023-02-28T09:22:18.829Z,92.00
2023-02-28T09:24:47.216Z,92.10
2023-02-28T09:27:16.887Z,92.40
2023-02-28T09:29:49.311Z,92.50
2023-02-28T09:32:19.063Z,92.40
2023-02-28T09:34:47.669Z,92.20
2023-02-28T09:37:18.471Z,92.10
2023-02-28T09:39:46.866Z,92.80
2023-02-28T09:42:20.888Z,92.60
2023-02-28T09:44:49.308Z,92.30
2023-02-28T09:47:23.564Z,92.30
2023-02-28T09:49:51.945Z,92.10
2023-02-28T09:52:21.413Z,92.10
2023-02-28T09:54:49.776Z,92.10
2023-02-28T09:57:21.518Z,92.00
2023-02-28T09:59:59.747Z,91.90
2023-02-28T10:02:53.696Z,91.90
2023-02-28T10:05:25.057Z,91.80
2023-02-28T10:08:03.114Z,91.70
2023-02-28T10:10:35.710Z,91.70
2023-02-28T10:13:14.810Z,91.60
2023-02-28T10:15:43.231Z,91.60
2023-02-28T10:18:19.463Z,91.60
2023-02-28T10:20:47.811Z,91.60
2023-02-28T10:23:19.261Z,91.40
2023-02-28T10:25:49.730Z,91.40
2023-02-28T10:28:19.900Z,91.30
2023-02-28T10:30:49.558Z,91.50
2023-02-28T10:33:21.595Z,91.30
2023-02-28T10:35:50.105Z,91.20
2023-02-28T10:38:20.086Z,90.90
2023-02-28T10:40:48.620Z,90.80
2023-02-28T10:43:25.534Z,90.80
2023-02-28T10:46:15.856Z,90.50
2023-02-28T10:48:45.739Z,90.50
2023-02-28T10:51:14.571Z,90.50
2023-02-28T10:54:00.713Z,90.30
2023-02-28T10:56:29.942Z,90.00
2023-02-28T10:59:00.682Z,90.30
2023-02-28T11:01:37.908Z,90.00
2023-02-28T11:04:06.888Z,90.00
2023-02-28T11:06:35.894Z,89.80
2023-02-28T11:09:06.007Z,89.20
2023-02-28T11:11:44.097Z,88.90
2023-02-28T11:14:22.987Z,89.10
2023-02-28T11:16:51.406Z,88.90
2023-02-28T11:19:23.229Z,88.80
2023-02-28T11:21:55.330Z,88.60
2023-02-28T11:24:25.389Z,88.20
2023-02-28T11:26:53.698Z,88.40
2023-02-28T11:29:25.404Z,87.80
2023-02-28T11:32:08.374Z,87.80
2023-02-28T11:34:39.722Z,87.50
2023-02-28T11:37:14.431Z,87.20
2023-02-28T11:39:42.820Z,87.40
2023-02-28T11:42:29.326Z,87.00
2023-02-28T11:45:16.186Z,87.60
2023-02-28T11:47:47.039Z,86.70
2023-02-28T11:50:39.377Z,86.80
2023-02-28T11:53:20.192Z,86.40
2023-02-28T11:55:50.400Z,86.50
2023-02-28T11:58:26.113Z,86.50
2023-02-28T12:01:05.384Z,86.40
2023-02-28T12:03:38.520Z,85.20
2023-02-28T12:06:14.928Z,85.40
2023-02-28T12:08:51.783Z,85.10
2023-02-28T12:11:29.268Z,84.80
2023-02-28T12:14:03.979Z,84.80
2023-02-28T12:16:40.753Z,84.30
2023-02-28T12:19:19.078Z,84.10
2023-02-28T12:21:58.773Z,83.70
2023-02-28T12:24:34.967Z,83.60
2023-02-28T12:27:04.318Z,83.40
2023-02-28T12:29:35.140Z,84.50
2023-02-28T12:32:07.315Z,83.30
2023-02-28T12:34:37.389Z,83.00
2023-02-28T12:37:08.775Z,83.00
2023-02-28T12:39:49.738Z,82.80
2023-02-28T12:42:25.741Z,82.70
2023-02-28T12:44:56.209Z,82.90
2023-02-28T12:47:26.143Z,83.30
2023-02-28T12:49:56.339Z,83.20
2023-02-28T12:52:26.848Z,83.20
2023-02-28T12:54:58.270Z,82.80
2023-02-28T12:57:29.753Z,82.00
2023-02-28T12:59:59.317Z,82.80
2023-02-28T13:02:54.637Z,82.70
2023-02-28T13:05:34.999Z,82.60
2023-02-28T13:08:38.360Z,82.70
2023-02-28T13:11:13.160Z,82.50
2023-02-28T13:13:48.920Z,82.30
2023-02-28T13:16:17.309Z,82.40
2023-02-28T13:18:47.661Z,82.50
2023-02-28T13:21:24.733Z,82.50
2023-02-28T13:24:01.469Z,81.90
2023-02-28T13:27:09.491Z,81.80
2023-02-28T13:29:39.184Z,81.60
2023-02-28T13:32:39.725Z,81.90
2023-02-28T13:35:36.663Z,80.90
2023-02-28T13:38:36.898Z,81.30
2023-02-28T13:41:39.620Z,80.70
2023-02-28T13:44:08.350Z,81.10
2023-02-28T13:46:38.312Z,80.90
2023-02-28T13:49:22.064Z,80.70
2023-02-28T13:51:52.911Z,81.00
2023-02-28T13:54:30.177Z,80.80
2023-02-28T13:57:02.882Z,81.00
2023-02-28T13:59:34.661Z,80.30
2023-02-28T14:02:23.298Z,80.30
2023-02-28T14:05:07.565Z,80.60
2023-02-28T14:07:40.766Z,80.40
2023-02-28T14:10:09.895Z,81.20
2023-02-28T14:12:57.461Z,80.50
2023-02-28T14:15:40.005Z,80.40
2023-02-28T14:18:16.496Z,80.70
2023-02-28T14:20:44.841Z,80.00
2023-02-28T14:23:18.369Z,80.10
2023-02-28T14:25:49.857Z,81.00
2023-02-28T14:28:21.109Z,80.40
2023-02-28T14:31:00.242Z,81.60
2023-02-28T14:33:42.478Z,80.80
2023-02-28T14:36:16.943Z,80.20
2023-02-28T14:38:48.059Z,80.50
2023-02-28T14:41:22.522Z,80.50
2023-02-28T14:44:01.223Z,80.80
2023-02-28T14:46:38.198Z,81.20
2023-02-28T14:49:07.025Z,81.10
2023-02-28T14:51:35.595Z,80.40
2023-02-28T14:54:05.347Z,80.70
2023-02-28T14:56:37.459Z,80.60
2023-02-28T14:59:06.078Z,80.60
2023-02-28T15:01:34.976Z,80.70
2023-02-28T15:04:05.196Z,80.60
2023-02-28T15:06:34.008Z,80.20
2023-02-28T15:09:19.426Z,81.10
2023-02-28T15:11:48.863Z,80.30
2023-02-28T15:14:21.769Z,80.00
2023-02-28T15:16:53.283Z,80.40
2023-02-28T15:19:23.791Z,80.90
2023-02-28T15:21:53.844Z,81.20
2023-02-28T15:24:25.679Z,79.70
2023-02-28T15:26:56.201Z,80.10
2023-02-28T15:29:25.411Z,79.50
2023-02-28T15:32:00.604Z,79.80
2023-02-28T15:34:42.977Z,81.10
2023-02-28T15:37:32.495Z,80.50
2023-02-28T15:40:09.935Z,80.00
2023-02-28T15:42:38.333Z,79.70
2023-02-28T15:45:07.513Z,79.10
2023-02-28T15:47:36.188Z,79.90
2023-02-28T15:50:05.786Z,79.40
2023-02-28T15:52:36.661Z,79.00
2023-02-28T15:55:13.575Z,80.90
2023-02-28T15:57:42.036Z,80.00
2023-02-28T16:00:13.329Z,80.80
2023-02-28T16:02:46.198Z,79.40
2023-02-28T16:05:29.204Z,79.50
2023-02-28T16:07:59.763Z,80.20
2023-02-28T16:10:34.851Z,80.80
2023-02-28T16:13:04.212Z,80.00
2023-02-28T16:15:35.924Z,80.70
2023-02-28T16:18:07.084Z,81.20
2023-02-28T16:20:35.513Z,80.50
2023-02-28T16:23:03.875Z,80.60
2023-02-28T16:25:38.901Z,79.70
2023-02-28T16:28:08.775Z,80.30
2023-02-28T16:30:40.096Z,82.10
2023-02-28T16:33:11.239Z,80.40
2023-02-28T16:35:39.639Z,81.00
2023-02-28T16:38:07.945Z,80.90
2023-02-28T16:40:37.854Z,80.80
2023-02-28T16:43:08.038Z,81.70
2023-02-28T16:45:36.403Z,81.70
2023-02-28T16:48:04.980Z,81.50
2023-02-28T16:50:33.835Z,80.90
2023-02-28T16:53:02.171Z,81.50
2023-02-28T16:55:30.610Z,81.70
2023-02-28T16:58:01.357Z,81.70
2023-02-28T17:00:30.498Z,82.00
2023-02-28T17:03:00.012Z,81.80
2023-02-28T17:05:28.375Z,82.20
2023-02-28T17:07:56.726Z,83.50
2023-02-28T17:10:26.500Z,82.90
2023-02-28T17:12:58.400Z,83.70
2023-02-28T17:15:35.800Z,82.90
2023-02-28T17:18:04.180Z,83.20
2023-02-28T17:20:32.751Z,84.80
2023-02-28T17:23:01.704Z,85.70
2023-02-28T17:25:30.084Z,85.40
2023-02-28T17:27:58.415Z,86.20
2023-02-28T17:30:28.323Z,86.30
2023-02-28T17:32:58.132Z,86.90
2023-02-28T17:35:27.721Z,85.30
2023-02-28T17:37:56.122Z,85.80
2023-02-28T17:40:25.135Z,85.60
2023-02-28T17:42:53.999Z,85.70
2023-02-28T17:45:22.314Z,86.20
2023-02-28T17:47:51.315Z,85.20
2023-02-28T17:50:22.198Z,86.60
2023-02-28T17:52:51.339Z,85.30
2023-02-28T17:55:20.135Z,85.90
2023-02-28T17:57:48.561Z,85.40
2023-02-28T18:00:18.422Z,85.10
2023-02-28T18:02:46.845Z,85.90
2023-02-28T18:05:15.184Z,85.40
2023-02-28T18:07:44.958Z,85.30
2023-02-28T18:10:16.161Z,85.80
2023-02-28T18:12:45.052Z,85.70
2023-02-28T18:15:13.464Z,86.70
2023-02-28T18:17:41.834Z,85.50
2023-02-28T18:20:13.071Z,85.10
2023-02-28T18:22:42.050Z,85.10
2023-02-28T18:25:14.648Z,85.40
2023-02-28T18:27:53.843Z,85.20
2023-02-28T18:30:22.513Z,85.50
2023-02-28T18:32:53.284Z,85.20
2023-02-28T18:35:34.751Z,85.40
2023-02-28T18:38:05.159Z,85.30
2023-02-28T18:40:34.927Z,85.30
2023-02-28T18:43:05.876Z,85.40
2023-02-28T18:45:37.008Z,85.20
2023-02-28T18:48:05.552Z,85.30
2023-02-28T18:50:33.914Z,85.80
2023-02-28T18:53:03.362Z,85.60
2023-02-28T18:55:34.159Z,85.70
2023-02-28T18:58:02.596Z,85.70
2023-02-28T19:00:31.453Z,85.40
2023-02-28T19:03:00.000Z,85.40
2023-02-28T19:05:30.980Z,85.20
2023-02-28T19:07:59.383Z,85.20
2023-02-28T19:10:28.999Z,85.40
2023-02-28T19:12:58.703Z,85.70
2023-02-28T19:15:27.388Z,85.80
2023-02-28T19:17:55.765Z,85.60
2023-02-28T19:20:24.859Z,85.70
2023-02-28T19:22:53.218Z,85.50
2023-02-28T19:25:21.555Z,85.80
2023-02-28T19:27:52.351Z,85.80
2023-02-28T19:30:22.243Z,85.80
2023-02-28T19:32:50.733Z,85.60
2023-02-28T19:35:19.200Z,85.60
2023-02-28T19:37:47.615Z,85.60
2023-02-28T19:40:19.999Z,85.80
2023-02-28T19:42:48.382Z,85.60
2023-02-28T19:45:18.922Z,85.90
2023-02-28T19:47:50.007Z,85.80
2023-02-28T19:50:21.178Z,85.80
2023-02-28T19:52:51.603Z,85.80
2023-02-28T19:55:19.914Z,85.90
2023-02-28T19:57:48.389Z,86.20
2023-02-28T20:00:18.918Z,85.80
2023-02-28T20:02:48.606Z,86.00
2023-02-28T20:05:17.247Z,86.20
2023-02-28T20:07:49.143Z,86.50
2023-02-28T20:10:17.610Z,86.30
2023-02-28T20:12:46.015Z,86.20
2023-02-28T20:15:14.305Z,86.30
2023-02-28T20:17:42.832Z,86.40
2023-02-28T20:20:13.385Z,86.40
2023-02-28T20:22:41.709Z,86.40
2023-02-28T20:25:11.449Z,86.30
2023-02-28T20:27:39.809Z,86.50
2023-02-28T20:30:09.804Z,86.50
2023-02-28T20:32:40.950Z,86.30
2023-02-28T20:35:12.272Z,86.50
2023-02-28T20:37:41.965Z,86.70
2023-02-28T20:40:11.576Z,86.40
2023-02-28T20:42:41.574Z,86.80
2023-02-28T20:45:11.075Z,86.60
2023-02-28T20:47:43.635Z,86.50
2023-02-28T20:50:13.548Z,86.80
2023-02-28T20:52:46.944Z,86.90
2023-02-28T20:55:15.299Z,86.80
2023-02-28T20:57:43.691Z,86.90
2023-02-28T21:00:17.958Z,86.60
2023-02-28T21:02:48.634Z,86.90
2023-02-28T21:05:17.757Z,86.80
2023-02-28T21:07:47.409Z,86.80
2023-02-28T21:10:18.788Z,86.90
2023-02-28T21:12:49.610Z,86.70
2023-02-28T21:15:18.318Z,86.90
2023-02-28T21:17:48.132Z,86.90
2023-02-28T21:20:21.791Z,87.40
2023-02-28T21:22:52.695Z,87.20
2023-02-28T21:25:21.422Z,87.70
2023-02-28T21:27:49.797Z,87.20
2023-02-28T21:30:18.345Z,87.40
2023-02-28T21:32:46.727Z,87.20
2023-02-28T21:35:15.147Z,87.30
2023-02-28T21:37:44.054Z,87.40
2023-02-28T21:40:14.905Z,87.40
2023-02-28T21:42:43.240Z,87.40
2023-02-28T21:45:12.221Z,87.40
2023-02-28T21:47:44.476Z,87.90
2023-02-28T21:50:16.306Z,87.80
2023-02-28T21:52:45.672Z,88.10
2023-02-28T21:55:15.604Z,88.90
2023-02-28T21:57:44.102Z,88.20
2023-02-28T22:00:16.900Z,88.10
2023-02-28T22:02:50.560Z,88.00
2023-02-28T22:05:19.010Z,88.10
2023-02-28T22:07:47.309Z,88.30
2023-02-28T22:10:17.657Z,88.50
2023-02-28T22:12:46.034Z,88.50
2023-02-28T22:15:16.847Z,88.20
2023-02-28T22:17:45.287Z,88.70
2023-02-28T22:20:13.982Z,88.70
2023-02-28T22:22:42.290Z,88.60
2023-02-28T22:25:11.284Z,88.40
2023-02-28T22:27:41.014Z,88.20
2023-02-28T22:30:10.740Z,88.00
2023-02-28T22:32:42.053Z,88.10
2023-02-28T22:35:10.699Z,87.80
2023-02-28T22:37:39.008Z,87.80
2023-02-28T22:40:09.487Z,88.10
2023-02-28T22:42:37.938Z,88.10
2023-02-28T22:45:08.795Z,88.20
2023-02-28T22:47:37.144Z,88.60
2023-02-28T22:50:06.007Z,88.30
2023-02-28T22:52:34.403Z,88.50
2023-02-28T22:55:02.708Z,88.40
2023-02-28T22:57:31.069Z,88.00
2023-02-28T22:59:59.379Z,88.40
2023-02-28T23:02:29.107Z,88.10
2023-02-28T23:04:57.424Z,88.30
2023-02-28T23:07:27.031Z,88.40
2023-02-28T23:09:55.337Z,88.30
2023-02-28T23:12:23.631Z,88.40
2023-02-28T23:14:51.982Z,88.20
2023-02-28T23:17:20.360Z,88.20
2023-02-28T23:19:50.039Z,88.30
2023-02-28T23:22:18.388Z,88.30
2023-02-28T23:24:46.732Z,88.30
2023-02-28T23:27:15.038Z,88.60
2023-02-28T23:29:43.620Z,88.30
2023-02-28T23:32:12.015Z,88.40
2023-02-28T23:34:40.438Z,88.70
2023-02-28T23:37:10.139Z,88.60
2023-02-28T23:39:38.534Z,88.30
2023-02-28T23:42:06.958Z,88.40
2023-02-28T23:44:35.345Z,88.30
2023-02-28T23:47:03.707Z,88.10
2023-02-28T23:49:32.078Z,88.30
2023-02-28T23:52:00.505Z,88.40
2023-02-28T23:54:30.689Z,88.30
2023-02-28T23:56:59.053Z,88.50
2023-02-28T23:59:27.520Z,88.70
